ADDS METAR Data INFO
IDs: Format: Raw Decoded Include TAF

Data at: 1427 UTC 22 Feb 2018

KULM 221415Z AUTO 09006KT 10SM OVC023 M11/M14 A3054 RMK AO2
KULM 221355Z AUTO 09007KT 10SM OVC023 M11/M14 A3053 RMK AO2
KULM 221335Z AUTO 06007KT 10SM OVC025 M11/M15 A3052 RMK AO2
KULM 221315Z AUTO 07005KT 10SM BKN025 OVC110 M12/M15 A3053 RMK AO2
KULM 221255Z AUTO 08006KT 10SM SCT029 BKN090 OVC110 M12/M15 A3053 RMK AO2
KULM 221235Z AUTO 08005KT 10SM BKN090 120 M12/M16 A3054 RMK AO2
KULM 221215Z AUTO 08005KT 10SM SCT090 120 M12/M16 A3054 RMK AO2
KULM 221155Z AUTO 06004KT 10SM SCT120 M12/M16 A3055 RMK AO2
KULM 221135Z AUTO 04005KT 10SM CLR M12/M16 A3055 RMK AO2
KULM 221115Z AUTO 00000KT 10SM CLR M12/M16 A3056 RMK AO2
KULM 221055Z AUTO 00000KT 10SM SCT120 M12/M17 A3056 RMK AO2
KULM 221035Z AUTO 00000KT 10SM OVC120 M13/M16 A3056 RMK AO2
KULM 221015Z AUTO 04004KT 10SM BKN110 M13/M16 A3055 RMK AO2
KULM 220955Z AUTO 00000KT 10SM OVC110 M13/M17 A3056 RMK AO2
KULM 220935Z AUTO 16004KT 10SM OVC110 M13/M17 A3057 RMK AO2
KULM 220915Z AUTO 00000KT 10SM OVC110 M13/M17 A3055 RMK AO2
KULM 220855Z AUTO 08006KT 10SM BKN110 M13/M17 A3054 RMK AO2
KULM 220835Z AUTO 06003KT 10SM OVC110 M12/M16 A3056 RMK AO2
KULM 220815Z AUTO 00000KT 10SM BKN120 M12/M16 A3057 RMK AO2
KULM 220755Z AUTO 09003KT 10SM BKN120 M12/M16 A3056 RMK AO2
KULM 220735Z AUTO 09004KT 10SM SCT120 M12/M16 A3057 RMK AO2
KULM 220715Z AUTO 11004KT 10SM CLR M12/M16 A3057 RMK AO2
KULM 220655Z AUTO 00000KT 10SM SCT120 M12/M16 A3057 RMK AO2
KULM 220635Z AUTO 00000KT 10SM SCT120 M12/M17 A3058 RMK AO2
KULM 220615Z AUTO 00000KT 10SM SCT120 M12/M17 A3058 RMK AO2
KULM 220555Z AUTO 16004KT 10SM CLR M12/M17 A3059 RMK AO2
KULM 220535Z AUTO 15005KT 10SM CLR M13/M17 A3059 RMK AO2
KULM 220515Z AUTO 14004KT 10SM CLR M13/M17 A3059 RMK AO2
KULM 220455Z AUTO 12005KT 10SM SCT120 M12/M17 A3060 RMK AO2
KULM 220435Z AUTO 13004KT 10SM SCT120 M13/M18 A3061 RMK AO2
KULM 220415Z AUTO 14004KT 10SM SCT120 M13/M17 A3061 RMK AO2
KULM 220355Z AUTO 14004KT 10SM CLR M13/M17 A3062 RMK AO2
KULM 220036Z AUTO 00000KT 10SM CLR M11/M16 A3062 RMK AO2
KULM 220015Z AUTO 16003KT 10SM CLR M10/M16 A3062 RMK AO2
KULM 212355Z AUTO 17003KT 10SM CLR M10/M16 A3062 RMK AO2
KULM 212335Z AUTO 16003KT 10SM CLR M09/M15 A3062 RMK AO2
KULM 212315Z AUTO 00000KT 10SM CLR M09/M16 A3062 RMK AO2
KULM 212255Z AUTO 20005KT 10SM CLR M09/M16 A3061 RMK AO2
KULM 212235Z AUTO 24003KT 10SM CLR M09/M16 A3061 RMK AO2
KULM 212215Z AUTO 25003KT 10SM CLR M09/M16 A3061 RMK AO2
KULM 212155Z AUTO 22003KT 10SM CLR M09/M17 A3061 RMK AO2
KULM 212135Z AUTO 19004KT 10SM CLR M09/M17 A3061 RMK AO2
KULM 212115Z AUTO 21005KT 10SM CLR M09/M16 A3061 RMK AO2
KULM 212055Z AUTO 22004KT 10SM CLR M09/M16 A3062 RMK AO2
KULM 212035Z AUTO 21005KT 10SM CLR M09/M17 A3062 RMK AO2
KULM 212015Z AUTO 23004KT 10SM CLR M09/M17 A3061 RMK AO2
KULM 211955Z AUTO 22003KT 10SM CLR M09/M17 A3061 RMK AO2
KULM 211935Z AUTO 26004KT 10SM CLR M10/M17 A3061 RMK AO2
KULM 211915Z AUTO 23003KT 10SM CLR M10/M17 A3061 RMK AO2
KULM 211856Z AUTO 23004KT 10SM CLR M11/M17 A3062 RMK AO2
KULM 211835Z AUTO 23005KT 10SM CLR M11/M17 A3063 RMK AO2
KULM 211815Z AUTO 25005KT 10SM CLR M11/M18 A3062 RMK AO2
KULM 211756Z AUTO 24007KT 10SM CLR M11/M18 A3064 RMK AO2
KULM 211735Z AUTO 23005KT 10SM CLR M12/M19 A3063 RMK AO2
KULM 211715Z AUTO 24005KT 10SM CLR M12/M19 A3063 RMK AO2
KULM 211655Z AUTO 24005KT 10SM CLR M13/M19 A3063 RMK AO2
KULM 211635Z AUTO 26007KT 10SM CLR M13/M19 A3062 RMK AO2
KULM 211615Z AUTO 25008KT 10SM CLR M14/M19 A3061 RMK AO2
KULM 211555Z AUTO 23007KT 10SM CLR M14/M20 A3061 RMK AO2
KULM 211535Z AUTO 22004KT 10SM CLR M16/M20 A3060 RMK AO2
KULM 211515Z AUTO 21005KT 10SM CLR M16/M21 A3060 RMK AO2
KULM 211455Z AUTO 21006KT 10SM CLR M17/M21 A3059 RMK AO2
KULM 211435Z AUTO 20005KT 10SM CLR M18/M22 A3058 RMK AO2
KULM 211415Z AUTO 24003KT 10SM CLR M19/M22 A3057 RMK AO2
KULM 211355Z AUTO 22003KT 10SM CLR M19/M22 A3056 RMK AO2
KULM 211335Z AUTO 00000KT 10SM CLR M19/M23 A3055 RMK AO2
KULM 211315Z AUTO 00000KT 10SM CLR M19/M23 A3054 RMK AO2
KULM 211255Z AUTO 24003KT 10SM CLR M20/M23 A3053 RMK AO2
KULM 210755Z AUTO 26006KT 10SM CLR M18/M21 A3045 RMK AO2
KULM 210735Z AUTO 26006KT 10SM CLR M18/M21 A3044 RMK AO2
KULM 210715Z AUTO 27008KT 10SM CLR M17/M21 A3043 RMK AO2
KULM 210655Z AUTO 27008KT 10SM CLR M18/M21 A3042 RMK AO2
KULM 210635Z AUTO 26007KT 10SM CLR M17/M20 A3043 RMK AO2
KULM 210615Z AUTO 27008KT 10SM CLR M17/M20 A3041 RMK AO2
KULM 210555Z AUTO 27009KT 10SM CLR M17/M20 A3040 RMK AO2